Time;durP1;ratioP1;P1;durP2;ratioP2;P2;SDS_P1;SDS_P2;PMS_P1;PMS_P2;Temp;Humidity;BMP_temperature;BMP_pressure;BME280_temperature;BME280_humidity;BME280_pressure;Samples;Min_cycle;Max_cycle;Signal;HPM_P1;HPM_P2
2024/02/23 00:02:23;;;;;;;6.20;4.70;;;;;;;8.17;68.68;97420.14;104410;1273;97648;-81
2024/02/23 00:04:50;;;;;;;7.50;5.20;;;;;;;8.16;68.77;97416.34;103665;1273;109966;-85
2024/02/23 00:07:17;;;;;;;7.40;5.40;;;;;;;8.16;68.66;97411.54;104328;1276;96714;-86
2024/02/23 00:09:43;;;;;;;7.60;5.30;;;;;;;8.17;68.79;97420.86;104360;1273;96561;-81
2024/02/23 00:12:10;;;;;;;7.80;5.10;;;;;;;8.17;68.85;97418.91;103673;1280;96634;-85
2024/02/23 00:14:36;;;;;;;8.20;5.80;;;;;;;8.18;68.87;97420.94;103647;1278;96808;-86
2024/02/23 00:17:03;;;;;;;7.40;5.50;;;;;;;8.19;68.84;97424.20;103904;1273;97562;-87
2024/02/23 00:19:31;;;;;;;8.60;6.20;;;;;;;8.20;68.78;97418.34;104286;1276;96632;-83
2024/02/23 00:21:59;;;;;;;6.80;4.50;;;;;;;8.19;68.85;97415.55;103722;1279;97539;-84
2024/02/23 00:24:26;;;;;;;8.60;6.20;;;;;;;8.22;68.92;97414.26;103805;1276;97982;-83
2024/02/23 00:26:52;;;;;;;8.40;5.50;;;;;;;8.22;68.76;97410.89;103669;1276;96727;-86
2024/02/23 00:29:19;;;;;;;7.90;5.20;;;;;;;8.23;68.80;97412.26;104169;1276;96622;-83
2024/02/23 00:31:46;;;;;;;7.60;5.50;;;;;;;8.23;68.81;97414.13;103963;1273;96753;-85
2024/02/23 00:34:14;;;;;;;8.90;6.20;;;;;;;8.25;68.76;97415.38;103776;1289;97548;-85
2024/02/23 00:36:42;;;;;;;9.10;5.40;;;;;;;8.26;68.76;97408.41;104349;1273;98562;-86
2024/02/23 00:39:08;;;;;;;8.10;5.50;;;;;;;8.27;68.76;97407.41;104285;1276;97347;-85
2024/02/23 00:41:35;;;;;;;9.50;5.90;;;;;;;8.27;68.91;97411.15;104251;1273;96637;-82
2024/02/23 00:44:03;;;;;;;9.30;4.90;;;;;;;8.28;68.81;97405.04;103447;1277;96640;-80
2024/02/23 00:46:30;;;;;;;6.50;4.70;;;;;;;8.30;68.79;97405.38;104258;1277;96545;-88
2024/02/23 00:48:57;;;;;;;6.70;5.00;;;;;;;8.32;68.76;97412.63;104285;1272;97887;-87
2024/02/23 00:51:23;;;;;;;7.20;4.80;;;;;;;8.32;68.93;97415.48;103963;1274;96640;-85
2024/02/23 00:53:50;;;;;;;7.10;4.80;;;;;;;8.32;68.76;97423.77;104289;1276;96557;-86
2024/02/23 00:56:16;;;;;;;7.30;4.50;;;;;;;8.32;68.84;97432.73;104099;1277;97594;-83
2024/02/23 00:58:43;;;;;;;6.60;5.00;;;;;;;8.32;68.72;97437.90;103289;1276;110598;-84
2024/02/23 01:01:09;;;;;;;6.10;4.20;;;;;;;8.32;68.80;97433.30;104029;1272;97945;-83
2024/02/23 01:03:36;;;;;;;7.50;4.80;;;;;;;8.33;68.84;97428.79;103822;1276;96632;-85
2024/02/23 01:06:03;;;;;;;7.10;5.10;;;;;;;8.36;68.81;97421.80;103909;1273;96663;-87
2024/02/23 01:08:31;;;;;;;8.30;4.70;;;;;;;8.38;68.87;97408.92;104250;1276;97105;-79
2024/02/23 01:10:58;;;;;;;5.40;4.10;;;;;;;8.39;68.81;97408.83;103594;1277;97919;-74
2024/02/23 01:13:24;;;;;;;5.60;4.30;;;;;;;8.38;68.74;97408.73;103417;1280;96689;-84
2024/02/23 01:15:51;;;;;;;8.00;4.70;;;;;;;8.38;68.81;97406.48;104192;1273;96717;-73
2024/02/23 01:18:18;;;;;;;6.70;4.40;;;;;;;8.39;68.86;97406.52;103465;1274;96564;-85
2024/02/23 01:20:45;;;;;;;6.90;4.90;;;;;;;8.40;68.84;97408.89;103841;1274;96634;-79
2024/02/23 01:23:11;;;;;;;7.00;4.60;;;;;;;8.43;68.82;97416.08;104156;1274;96702;-86
2024/02/23 01:25:39;;;;;;;7.80;4.30;;;;;;;8.43;68.74;97417.98;104220;1276;96618;-85
2024/02/23 01:28:05;;;;;;;7.90;4.20;;;;;;;8.44;68.78;97413.30;104073;1276;97739;-84
2024/02/23 01:30:32;;;;;;;6.90;4.70;;;;;;;8.46;68.73;97413.49;104214;1276;96726;-86
2024/02/23 01:32:58;;;;;;;6.80;4.70;;;;;;;8.47;68.88;97407.45;104155;1273;97571;-84
2024/02/23 01:35:25;;;;;;;7.50;4.60;;;;;;;8.47;68.88;97405.48;103901;1273;96751;-85
2024/02/23 01:37:53;;;;;;;7.00;4.60;;;;;;;8.48;68.81;97400.83;103363;1276;96705;-84
2024/02/23 01:40:20;;;;;;;6.80;4.40;;;;;;;8.47;68.64;97387.81;103594;1276;111196;-82
2024/02/23 01:42:46;;;;;;;7.90;5.10;;;;;;;8.46;68.74;97379.03;103424;1288;96657;-80
2024/02/23 01:45:13;;;;;;;7.10;4.70;;;;;;;8.47;68.79;97374.73;104147;1273;96631;-85
2024/02/23 01:47:41;;;;;;;6.80;4.70;;;;;;;8.48;68.63;97374.98;103779;1277;96725;-82
2024/02/23 01:50:09;;;;;;;8.30;4.70;;;;;;;8.49;68.67;97369.63;104146;1274;96637;-84
2024/02/23 01:52:36;;;;;;;6.10;4.00;;;;;;;8.50;68.64;97370.46;103829;1276;96626;-84
2024/02/23 01:55:03;;;;;;;7.10;4.20;;;;;;;8.51;68.69;97370.05;104109;1287;96728;-86
2024/02/23 01:57:30;;;;;;;8.50;5.20;;;;;;;8.51;68.56;97372.11;104253;1279;97868;-84
2024/02/23 02:00:18;;;;;;;5.40;3.50;;;;;;;8.52;68.66;97374.09;105770;1272;96624;-84
2024/02/23 02:02:45;;;;;;;5.50;3.70;;;;;;;8.54;68.58;97366.39;104059;1273;96687;-85
2024/02/23 02:05:11;;;;;;;6.60;4.30;;;;;;;8.56;68.53;97367.42;103761;1287;96648;-86
2024/02/23 02:07:41;;;;;;;6.30;4.00;;;;;;;8.57;68.60;97365.52;104029;1276;96579;-82
2024/02/23 02:10:09;;;;;;;6.30;4.50;;;;;;;8.58;68.58;97362.95;104201;1274;107822;-85
2024/02/23 02:12:36;;;;;;;5.60;3.60;;;;;;;8.57;68.47;97354.21;104161;1288;96551;-85
2024/02/23 02:15:03;;;;;;;5.90;3.60;;;;;;;8.57;68.53;97356.14;103970;1274;96619;-80
2024/02/23 02:17:30;;;;;;;7.70;4.60;;;;;;;8.58;68.55;97352.39;104660;1276;97089;-82
2024/02/23 02:20:04;;;;;;;6.70;4.20;;;;;;;8.59;68.49;97360.10;104032;1274;97475;-83
2024/02/23 02:22:33;;;;;;;5.70;3.60;;;;;;;8.61;68.56;97353.91;104516;1273;107424;-83
2024/02/23 02:25:00;;;;;;;4.40;3.00;;;;;;;8.61;68.43;97358.31;103929;1273;96759;-85
2024/02/23 02:27:26;;;;;;;7.10;4.30;;;;;;;8.61;68.45;97357.95;104512;1274;96647;-85
2024/02/23 02:29:53;;;;;;;5.00;3.80;;;;;;;8.60;68.38;97358.92;103860;1274;96665;-84
2024/02/23 02:32:19;;;;;;;5.80;4.10;;;;;;;8.58;68.38;97360.55;103485;1273;96702;-86
2024/02/23 02:34:46;;;;;;;5.10;3.70;;;;;;;8.56;68.39;97364.09;104029;1276;96574;-85
2024/02/23 02:37:12;;;;;;;6.50;4.20;;;;;;;8.54;68.40;97362.35;104252;1273;96569;-84
2024/02/23 02:39:39;;;;;;;6.00;3.60;;;;;;;8.52;68.47;97368.13;103752;1276;96715;-85
2024/02/23 02:42:06;;;;;;;5.80;3.60;;;;;;;8.52;68.36;97374.17;103877;1273;96656;-79
2024/02/23 02:44:33;;;;;;;7.00;3.90;;;;;;;8.51;68.40;97372.98;103677;1277;96911;-84
2024/02/23 02:47:00;;;;;;;6.50;3.20;;;;;;;8.51;68.39;97370.05;103689;1274;96755;-85
2024/02/23 02:49:26;;;;;;;5.10;3.70;;;;;;;8.52;68.39;97375.77;103272;1276;109872;-82
2024/02/23 02:51:53;;;;;;;5.60;3.40;;;;;;;8.52;68.35;97370.77;103235;1276;96888;-84
2024/02/23 02:54:20;;;;;;;6.00;3.70;;;;;;;8.51;68.27;97370.16;103548;1276;96865;-83
2024/02/23 02:56:50;;;;;;;6.50;3.30;;;;;;;8.49;68.45;97376.52;103508;1276;96672;-80
2024/02/23 02:59:18;;;;;;;6.70;3.50;;;;;;;8.45;68.45;97375.99;103709;1276;96731;-83
2024/02/23 03:01:46;;;;;;;4.80;2.80;;;;;;;8.42;68.41;97378.57;104235;1276;109905;-86
2024/02/23 03:04:13;;;;;;;5.30;3.50;;;;;;;8.39;68.45;97370.83;104261;1273;96673;-85
2024/02/23 03:06:39;;;;;;;4.70;3.00;;;;;;;8.36;68.33;97378.33;103973;1280;96652;-84
2024/02/23 03:09:07;;;;;;;5.80;3.90;;;;;;;8.33;68.40;97374.04;104175;1274;98052;-85
2024/02/23 03:11:33;;;;;;;5.70;3.20;;;;;;;8.31;68.53;97373.70;104298;1273;96663;-77
2024/02/23 03:14:00;;;;;;;5.80;3.60;;;;;;;8.29;68.42;97376.36;103996;1273;96555;-86
2024/02/23 03:16:27;;;;;;;4.30;3.00;;;;;;;8.27;68.45;97375.27;104033;1276;96802;-86
2024/02/23 03:18:54;;;;;;;6.00;3.10;;;;;;;8.28;68.57;97370.98;104313;1277;96625;-86
2024/02/23 03:21:20;;;;;;;4.30;2.80;;;;;;;8.28;68.49;97374.66;104162;1277;96746;-81
2024/02/23 03:23:47;;;;;;;8.30;3.50;;;;;;;8.28;68.46;97378.20;104182;1273;96653;-84
2024/02/23 03:26:15;;;;;;;5.10;3.10;;;;;;;8.29;68.27;97378.33;104237;1276;96627;-85
2024/02/23 03:28:43;;;;;;;4.70;2.40;;;;;;;8.30;68.51;97374.70;103458;1288;96752;-84
2024/02/23 03:31:09;;;;;;;5.60;3.10;;;;;;;8.31;68.54;97375.63;103906;1272;96641;-85
2024/02/23 03:33:36;;;;;;;6.70;3.10;;;;;;;8.32;68.53;97385.97;103805;1274;97080;-82
2024/02/23 03:36:03;;;;;;;5.50;3.20;;;;;;;8.33;68.55;97388.00;103913;1273;96746;-84
2024/02/23 03:38:30;;;;;;;6.10;3.40;;;;;;;8.34;68.52;97386.28;104224;1276;96644;-85
2024/02/23 03:40:58;;;;;;;5.90;3.10;;;;;;;8.37;68.47;97397.57;104598;1274;96741;-84
2024/02/23 03:43:25;;;;;;;3.90;2.70;;;;;;;8.35;68.35;97392.38;104002;1274;97530;-82
2024/02/23 03:45:52;;;;;;;4.90;3.40;;;;;;;8.34;68.34;97391.62;103440;1273;97544;-85
2024/02/23 03:48:18;;;;;;;5.40;3.30;;;;;;;8.33;68.43;97394.90;103709;1277;96717;-81
2024/02/23 03:50:46;;;;;;;3.90;2.90;;;;;;;8.32;68.46;97399.95;104089;1276;96632;-85
2024/02/23 03:53:12;;;;;;;3.70;2.90;;;;;;;8.30;68.44;97400.30;104025;1276;97451;-76
2024/02/23 03:55:39;;;;;;;4.20;2.80;;;;;;;8.29;68.46;97401.45;103547;1276;96892;-84
2024/02/23 03:58:06;;;;;;;5.40;2.80;;;;;;;8.28;68.57;97401.67;104137;1276;96711;-84
2024/02/23 04:00:32;;;;;;;5.00;3.20;;;;;;;8.27;68.45;97406.58;103830;1279;96657;-86
2024/02/23 04:02:59;;;;;;;4.30;3.20;;;;;;;8.25;68.44;97411.30;103821;1276;97029;-85
2024/02/23 04:05:26;;;;;;;5.00;2.70;;;;;;;8.23;68.45;97410.29;104061;1274;108138;-78
2024/02/23 04:07:52;;;;;;;6.80;3.60;;;;;;;8.21;68.44;97409.35;103438;1284;96631;-84
2024/02/23 04:10:19;;;;;;;4.80;2.70;;;;;;;8.19;68.41;97412.17;103379;1289;97087;-85
2024/02/23 04:12:49;;;;;;;5.20;3.20;;;;;;;8.18;68.44;97413.51;104168;1273;96623;-86
2024/02/23 04:15:15;;;;;;;5.60;3.10;;;;;;;8.17;68.46;97414.31;103785;1274;96551;-83
2024/02/23 04:17:42;;;;;;;4.30;3.20;;;;;;;8.16;68.53;97411.54;103689;1274;96759;-81
2024/02/23 04:20:12;;;;;;;5.10;3.30;;;;;;;8.16;68.49;97413.02;103684;1273;96622;-85
2024/02/23 04:22:38;;;;;;;3.90;2.70;;;;;;;8.15;68.52;97408.29;103745;1276;108879;-77
2024/02/23 04:25:05;;;;;;;4.70;3.30;;;;;;;8.14;68.44;97411.72;103221;1280;96656;-85
2024/02/23 04:27:32;;;;;;;5.30;3.10;;;;;;;8.13;68.55;97407.10;103931;1273;96663;-87
2024/02/23 04:29:58;;;;;;;4.80;3.00;;;;;;;8.11;68.52;97404.48;104009;1273;96737;-84
2024/02/23 04:32:25;;;;;;;4.90;3.10;;;;;;;8.09;68.40;97400.59;105706;1276;96679;-82
2024/02/23 04:34:52;;;;;;;4.20;2.70;;;;;;;8.07;68.50;97406.36;104327;1276;96666;-86
2024/02/23 04:37:19;;;;;;;;;;;;;;;8.06;68.58;97407.33;104304;1273;96654;-82
2024/02/23 04:39:45;;;;;;;5.70;3.10;;;;;;;8.02;68.70;97402.39;104270;1276;96491;-83
2024/02/23 04:42:11;;;;;;;5.20;3.10;;;;;;;8.01;68.62;97398.79;103864;1276;97178;-85
2024/02/23 04:44:42;;;;;;;4.00;2.90;;;;;;;7.99;68.62;97397.22;104549;1274;96641;-83
2024/02/23 04:47:09;;;;;;;5.50;3.30;;;;;;;7.96;68.55;97403.06;104331;1273;96637;-80
2024/02/23 04:49:36;;;;;;;5.00;2.90;;;;;;;7.95;68.56;97398.80;104264;1276;97464;-77
2024/02/23 04:52:05;;;;;;;6.20;3.30;;;;;;;7.94;68.54;97396.45;104040;1274;98020;-77
2024/02/23 04:54:31;;;;;;;4.60;2.90;;;;;;;7.94;68.78;97401.54;104249;1276;97842;-75
2024/02/23 04:56:57;;;;;;;7.50;3.40;;;;;;;7.93;68.80;97401.27;104070;1273;96571;-77
2024/02/23 04:59:24;;;;;;;4.50;3.20;;;;;;;7.92;68.65;97403.46;104222;1276;97842;-86
2024/02/23 05:01:50;;;;;;;4.70;2.80;;;;;;;7.92;68.57;97408.61;104287;1276;97939;-84
2024/02/23 05:04:17;;;;;;;5.60;3.40;;;;;;;7.92;68.62;97417.05;103958;1275;105875;-83
2024/02/23 05:06:43;;;;;;;5.00;2.90;;;;;;;7.92;68.71;97412.68;104220;1273;96662;-90
2024/02/23 05:09:11;;;;;;;5.60;3.40;;;;;;;7.92;68.78;97418.82;104496;1273;96632;-84
2024/02/23 05:11:38;;;;;;;4.90;3.60;;;;;;;7.94;68.78;97414.64;104383;1273;96573;-83
2024/02/23 05:14:04;;;;;;;5.20;3.40;;;;;;;7.94;68.70;97415.33;104000;1280;96618;-87
2024/02/23 05:16:31;;;;;;;4.80;3.60;;;;;;;7.95;68.73;97416.11;103790;1274;96718;-85
2024/02/23 05:18:57;;;;;;;6.10;3.50;;;;;;;7.95;68.78;97415.19;104411;1273;96653;-84
2024/02/23 05:21:25;;;;;;;7.10;3.80;;;;;;;7.95;68.76;97421.02;104112;1276;96691;-74
2024/02/23 05:23:52;;;;;;;5.20;3.60;;;;;;;7.97;68.86;97421.89;103708;1276;96644;-75
2024/02/23 05:26:18;;;;;;;5.40;3.30;;;;;;;7.98;68.84;97430.23;103877;1273;96723;-75
2024/02/23 05:28:45;;;;;;;3.70;2.70;;;;;;;8.00;69.06;97429.05;104185;1274;96798;-75
2024/02/23 05:31:11;;;;;;;5.90;3.40;;;;;;;8.02;69.15;97431.36;103934;1272;97549;-75
2024/02/23 05:33:43;;;;;;;4.80;3.50;;;;;;;8.02;69.09;97437.16;104566;1276;96737;-81
2024/02/23 05:41:55;;;;;;;5.00;3.40;;;;;;;7.99;69.05;97443.07;102093;1297;96818;-79
2024/02/23 05:46:23;;;;;;;;;;;;;;;;;;;;;
2024/02/23 11:18:51;;;;;;;;;;;;;;;;;;;;;
2024/02/23 11:22:54;;;;;;;5.50;3.90;;;;;;;9.62;74.26;97732.91;107442;1260;95581;-80
2024/02/23 11:27:09;;;;;;;;;;;;;;;;;;;;;
2024/02/23 11:38:59;;;;;;;8.60;5.70;;;;;;;9.43;74.26;97734.97;105269;1279;106745;-79
